メインページ
METAR-TAF:

METAR-TAF

空港 :

イエローナイフ, ノースウェスト準州, カナダ

イエローナイフ空港

緯度: 62-28N, 経度: 114-27W, 海抜: 205m

現時点の気象観測

当レポートは17分前の23:00(UTC)に作成
北/北西の風 18kt
気温 10°C
湿度 66%
気圧 1020 hPa
視程: 24.1km
高度2200ftの雲は散在している
高度19000ftの千切れ雲あり
弱いにわか雨

METAR: CYZF 272300Z 34018KT 15SM -SHRA SCT022 BKN190 10/04 A3012 RMK SC3AC2 SLP211

時間: 17:17 (23:17 UTC)

予報

当レポートは5時間36分前の17:41(UTC)に作成
予報は27日の 18時(UTC)から 28日の 18時(UTC)まで有効
北西の風 8kt
視程: 10km
高度1200ftの雲は散在している
高度2500ftの千切れ雲あり
高度8000ftの曇り
27日の 18時(UTC)から 27日の 24時(UTC)まで一時的に
視程: 10km
高度1200ftの千切れ雲あり
高度2500ftの曇り
弱いにわか雨
27日の 19時(UTC)から 27日の 21時(UTC)まで徐々に
北/北西の風 10kt、最大20ktの突風を伴う
28日の 0000時(UTC)から
の風 12kt
視程: 10km
高度1500ftの雲はほとんどない
高度8000ftの雲は散在している
28日の 04時(UTC)から 28日の 06時(UTC)まで徐々に
の風 8kt
28日の 10時(UTC)から 28日の 12時(UTC)まで徐々に
変向風 3kt

TAF: CYZF 271741Z 2718/2818 32008KT P6SM SCT012 BKN025 OVC080 TEMPO 2718/2724 P6SM -SHRA BKN012 OVC025 BECMG 2719/2721 34010G20KT FM280000 35012KT P6SM FEW015 SCT080 BECMG 2804/2806 35008KT BECMG 2810/2812 VRB03KT RMK NXT FCST BY 280000Z

4,000以上の空港の気象観測と天気予報(METAR報とTAF報)

利用可能な観測所は地図上に黄色い丸と赤い丸で示す。

丸の上にカーソルを重ねると観測所名を参照できる。

次にクリックすると気象観測と天気予報を参照できる。

マップの切り替え:黒色「×」印の緑ボタンをクリックして拡大、「-」印の緑ボタンをクリックして縮小、緑色の三角印をクリックして隣りの地図に切り替え


METAR-TAF: